Prairie Du Sac, Wisconsin
Current Conditions -  °F | °C
As of 12:35 AM on Monday 24 Nov 2014 (Local Time) from KC29 Reporting Station
Overcast Overcast  
Wind Chill: 46°   Ceiling: 300
Heat Index: 46°   Visibility: 0.5mi
Dew Point: 46°   Wind: 3mph
Humidity: 100%   Direction: 310°NW
Pressure: 29.1"   Gusts: NA
Location:  43.29°N, 89.72°W
Report Text: KC29 240635Z AUTO 31003KT 1/2SM OVC003 08/08 A2910 RMK AO1 T00750075
Loading
Personal Weather Stations






























Interactive Weather Map New forecast layout! Learn more

10-Day Weather Forecast

Advertisements
Track Severe Weather on mobile